createdAt,value
2023-01-10T00:01:51.409Z,86.62
2023-01-10T00:04:19.598Z,86.52
2023-01-10T00:06:47.361Z,86.32
2023-01-10T00:09:15.182Z,85.59
2023-01-10T00:12:00.677Z,85.54
2023-01-10T00:14:34.932Z,86.67
2023-01-10T00:17:03.033Z,86.47
2023-01-10T00:19:31.108Z,86.89
2023-01-10T00:22:02.634Z,86.40
2023-01-10T00:24:31.865Z,86.69
2023-01-10T00:26:59.739Z,86.66
2023-01-10T00:29:31.231Z,87.00
2023-01-10T00:32:00.404Z,87.09
2023-01-10T00:34:28.143Z,86.82
2023-01-10T00:36:55.963Z,86.14
2023-01-10T00:39:27.314Z,87.21
2023-01-10T00:42:15.269Z,87.53
2023-01-10T00:44:44.609Z,88.08
2023-01-10T00:47:15.098Z,87.29
2023-01-10T00:49:42.975Z,86.44
2023-01-10T00:52:10.765Z,86.60
2023-01-10T00:54:38.567Z,86.95
2023-01-10T00:57:06.319Z,87.10
2023-01-10T00:59:34.319Z,86.84
2023-01-10T01:02:05.667Z,87.27
2023-01-10T01:04:35.210Z,88.28
2023-01-10T01:07:05.241Z,87.74
2023-01-10T01:09:33.094Z,87.58
2023-01-10T01:12:00.864Z,87.18
2023-01-10T01:14:29.601Z,87.25
2023-01-10T01:16:57.892Z,88.34
2023-01-10T01:19:25.711Z,87.83
2023-01-10T01:21:54.862Z,87.57
2023-01-10T01:24:24.371Z,88.29
2023-01-10T01:26:55.295Z,88.81
2023-01-10T01:29:30.016Z,88.57
2023-01-10T01:32:02.930Z,88.70
2023-01-10T01:34:31.151Z,88.45
2023-01-10T01:37:02.607Z,87.51
2023-01-10T01:39:30.365Z,87.56
2023-01-10T01:41:58.135Z,86.88
2023-01-10T01:44:31.066Z,87.58
2023-01-10T01:47:08.151Z,86.57
2023-01-10T01:49:41.542Z,87.27
2023-01-10T01:52:19.850Z,86.43
2023-01-10T01:54:47.996Z,86.31
2023-01-10T01:57:21.988Z,85.96
2023-01-10T01:59:53.564Z,85.82
2023-01-10T02:02:27.116Z,86.42
2023-01-10T02:04:58.501Z,86.29
2023-01-10T02:07:32.512Z,86.49
2023-01-10T02:10:06.116Z,86.51
2023-01-10T02:12:34.534Z,86.82
2023-01-10T02:15:04.009Z,87.04
2023-01-10T02:17:31.738Z,87.24
2023-01-10T02:20:05.441Z,87.76
2023-01-10T02:23:19.975Z,89.15
2023-01-10T02:26:17.191Z,89.11
2023-01-10T02:29:25.711Z,89.66
2023-01-10T02:32:15.935Z,89.56
2023-01-10T02:34:55.618Z,89.26
2023-01-10T02:37:38.623Z,89.02
2023-01-10T02:40:14.953Z,90.74
2023-01-10T02:42:49.029Z,89.83
2023-01-10T02:45:22.271Z,88.86
2023-01-10T02:47:51.656Z,88.98
2023-01-10T02:50:32.598Z,89.45
2023-01-10T02:53:07.272Z,90.19
2023-01-10T02:55:49.274Z,90.81
2023-01-10T02:58:28.549Z,90.35
2023-01-10T03:01:07.627Z,89.85
2023-01-10T03:03:48.106Z,89.45
2023-01-10T03:06:26.246Z,90.34
2023-01-10T03:09:00.563Z,90.93
2023-01-10T03:11:42.303Z,90.48
2023-01-10T03:14:17.008Z,90.27
2023-01-10T03:16:49.977Z,90.51
2023-01-10T03:19:22.532Z,90.30
2023-01-10T03:21:55.756Z,89.43
2023-01-10T03:24:29.778Z,89.26
2023-01-10T03:27:01.574Z,89.45
2023-01-10T03:29:35.038Z,88.56
2023-01-10T03:32:11.886Z,89.03
2023-01-10T03:34:41.813Z,88.63
2023-01-10T03:37:15.754Z,88.38
2023-01-10T03:39:54.792Z,87.70
2023-01-10T03:42:51.906Z,87.92
2023-01-10T03:45:26.902Z,88.07
2023-01-10T03:47:59.311Z,88.63
2023-01-10T03:50:34.838Z,88.50
2023-01-10T03:53:02.620Z,88.69
2023-01-10T03:55:31.538Z,87.63
2023-01-10T03:58:01.785Z,87.00
2023-01-10T04:00:30.831Z,87.01
2023-01-10T04:02:59.173Z,87.41
2023-01-10T04:05:28.319Z,87.20
2023-01-10T04:07:57.776Z,88.28
2023-01-10T04:10:27.178Z,87.71
2023-01-10T04:12:54.969Z,86.76
2023-01-10T04:15:22.676Z,87.01
2023-01-10T04:17:50.444Z,86.57
2023-01-10T04:20:18.300Z,86.67
2023-01-10T04:22:46.177Z,86.92
2023-01-10T04:25:19.011Z,86.42
2023-01-10T04:27:46.740Z,87.20
2023-01-10T04:30:14.578Z,87.46
2023-01-10T04:32:44.029Z,87.51
2023-01-10T04:35:11.814Z,88.04
2023-01-10T04:37:39.871Z,87.76
2023-01-10T04:40:11.784Z,87.44
2023-01-10T04:42:42.397Z,87.25
2023-01-10T04:45:11.821Z,87.83
2023-01-10T04:47:41.667Z,87.92
2023-01-10T04:50:10.688Z,87.96
2023-01-10T04:52:38.472Z,87.35
2023-01-10T04:55:06.948Z,86.94
2023-01-10T04:57:34.675Z,86.67
2023-01-10T05:00:04.729Z,86.47
2023-01-10T05:02:32.491Z,86.70
2023-01-10T05:05:00.464Z,86.86
2023-01-10T05:07:28.281Z,85.84
2023-01-10T05:09:56.030Z,85.58
2023-01-10T05:12:24.087Z,85.50
2023-01-10T05:14:51.839Z,85.09
2023-01-10T05:17:20.915Z,86.24
2023-01-10T05:19:49.908Z,85.39
2023-01-10T05:22:17.982Z,84.88
2023-01-10T05:24:45.728Z,84.61
2023-01-10T05:27:13.776Z,85.47
2023-01-10T05:29:41.710Z,84.27
2023-01-10T05:32:11.586Z,84.46
2023-01-10T05:34:41.283Z,83.82
2023-01-10T05:37:09.473Z,84.04
2023-01-10T05:39:40.012Z,84.23
2023-01-10T05:42:07.833Z,83.93
2023-01-10T05:44:35.635Z,83.11
2023-01-10T05:47:03.361Z,83.99
2023-01-10T05:49:31.735Z,83.78
2023-01-10T05:52:05.222Z,84.06
2023-01-10T05:54:33.060Z,83.86
2023-01-10T05:57:00.892Z,83.43
2023-01-10T05:59:28.909Z,83.70
2023-01-10T06:01:56.743Z,83.03
2023-01-10T06:04:24.803Z,82.83
2023-01-10T06:06:55.487Z,82.53
2023-01-10T06:09:26.036Z,82.87
2023-01-10T06:11:55.073Z,82.69
2023-01-10T06:14:22.944Z,82.96
2023-01-10T06:16:50.972Z,82.54
2023-01-10T06:19:18.734Z,81.34
2023-01-10T06:21:48.612Z,81.04
2023-01-10T06:24:16.523Z,80.79
2023-01-10T06:26:45.779Z,80.17
2023-01-10T06:29:13.581Z,80.30
2023-01-10T06:31:42.650Z,80.94
2023-01-10T06:34:10.390Z,80.71
2023-01-10T06:36:39.771Z,80.98
2023-01-10T06:39:10.163Z,80.69
2023-01-10T06:41:37.936Z,81.01
2023-01-10T06:44:08.519Z,80.57
2023-01-10T06:46:36.301Z,80.27
2023-01-10T06:49:04.274Z,80.08
2023-01-10T06:51:32.065Z,80.06
2023-01-10T06:54:00.157Z,80.23
2023-01-10T06:56:27.952Z,80.15
2023-01-10T06:58:58.859Z,80.41
2023-01-10T07:01:28.141Z,79.79
2023-01-10T07:03:56.165Z,79.19
2023-01-10T07:06:24.094Z,79.92
2023-01-10T07:08:57.752Z,79.34
2023-01-10T07:11:26.015Z,79.84
2023-01-10T07:13:54.627Z,79.29
2023-01-10T07:16:22.540Z,79.25
2023-01-10T07:18:51.846Z,78.62
2023-01-10T07:21:20.016Z,79.01
2023-01-10T07:23:50.284Z,79.48
2023-01-10T07:26:20.436Z,78.77
2023-01-10T07:28:51.372Z,79.15
2023-01-10T07:31:20.786Z,79.14
2023-01-10T07:33:48.700Z,79.31
2023-01-10T07:36:18.113Z,79.80
2023-01-10T07:38:46.617Z,79.37
2023-01-10T07:41:14.420Z,78.98
2023-01-10T07:43:42.276Z,79.09
2023-01-10T07:46:12.409Z,79.15
2023-01-10T07:48:41.821Z,79.19
2023-01-10T07:51:12.286Z,79.31
2023-01-10T07:53:41.576Z,78.70
2023-01-10T07:56:09.427Z,78.84
2023-01-10T07:58:37.544Z,78.71
2023-01-10T08:01:07.197Z,78.37
2023-01-10T08:03:35.872Z,77.89
2023-01-10T08:06:05.809Z,77.60
2023-01-10T08:08:34.966Z,77.09
2023-01-10T08:11:04.502Z,77.51
2023-01-10T08:13:34.763Z,76.72
2023-01-10T08:16:06.049Z,77.06
2023-01-10T08:18:36.098Z,77.17
2023-01-10T08:21:06.618Z,77.19
2023-01-10T08:23:35.047Z,76.62
2023-01-10T08:26:05.712Z,76.82
2023-01-10T08:28:33.651Z,77.17
2023-01-10T08:31:06.755Z,77.93
2023-01-10T08:33:34.778Z,77.31
2023-01-10T08:36:02.569Z,76.46
2023-01-10T08:38:30.423Z,77.19
2023-01-10T08:40:59.099Z,77.48
2023-01-10T08:46:37.117Z,76.45
2023-01-10T08:49:05.032Z,76.64
2023-01-10T08:51:32.882Z,76.53
2023-01-10T08:54:02.786Z,76.83
2023-01-10T08:56:30.868Z,76.74
2023-01-10T08:59:00.051Z,77.25
2023-01-10T09:01:27.977Z,76.28
2023-01-10T09:03:55.771Z,75.97
2023-01-10T09:06:24.403Z,76.15
2023-01-10T09:08:53.588Z,76.27
2023-01-10T09:11:21.405Z,76.50
2023-01-10T09:13:50.520Z,76.75
2023-01-10T09:16:20.027Z,76.45
2023-01-10T09:18:48.245Z,76.05
2023-01-10T09:21:18.661Z,75.31
2023-01-10T09:23:48.744Z,75.24
2023-01-10T09:26:16.514Z,75.27
2023-01-10T09:28:44.258Z,75.13
2023-01-10T09:31:12.198Z,75.72
2023-01-10T09:33:47.214Z,75.23
2023-01-10T09:36:16.433Z,75.43
2023-01-10T09:38:44.768Z,74.37
2023-01-10T09:41:35.403Z,74.15
2023-01-10T09:44:06.298Z,74.79
2023-01-10T09:46:48.225Z,73.89
2023-01-10T09:49:25.231Z,74.43
2023-01-10T09:51:59.130Z,73.48
2023-01-10T09:54:55.665Z,73.60
2023-01-10T09:57:24.519Z,76.38
2023-01-10T09:59:54.665Z,76.14
2023-01-10T10:02:30.552Z,77.02
2023-01-10T10:05:19.081Z,77.27
2023-01-10T10:07:52.029Z,77.37
2023-01-10T10:10:25.010Z,77.51
2023-01-10T10:13:06.880Z,76.82
2023-01-10T10:15:47.256Z,77.70
2023-01-10T10:18:26.045Z,75.70
2023-01-10T10:21:01.696Z,75.72
2023-01-10T10:24:12.057Z,75.46
2023-01-10T10:26:49.321Z,74.72
2023-01-10T10:29:48.731Z,73.97
2023-01-10T10:32:40.529Z,73.80
2023-01-10T10:35:16.521Z,74.04
2023-01-10T10:37:50.454Z,74.00
2023-01-10T10:40:21.109Z,73.03
2023-01-10T10:42:54.276Z,73.55
2023-01-10T10:45:25.735Z,73.47
2023-01-10T10:48:00.305Z,73.40
2023-01-10T10:50:33.273Z,73.26
2023-01-10T10:53:05.939Z,72.17
2023-01-10T10:55:38.084Z,72.77
2023-01-10T10:58:08.148Z,71.83
2023-01-10T11:00:36.656Z,69.55
2023-01-10T11:03:13.703Z,70.35
2023-01-10T11:05:44.432Z,70.04
2023-01-10T11:08:16.251Z,70.16
2023-01-10T11:10:48.075Z,71.45
2023-01-10T11:13:21.959Z,72.47
2023-01-10T11:15:51.378Z,71.88
2023-01-10T11:18:21.479Z,71.75
2023-01-10T11:20:52.364Z,71.54
2023-01-10T11:23:27.275Z,72.05
2023-01-10T11:25:55.745Z,72.21
2023-01-10T11:28:29.960Z,71.10
2023-01-10T11:30:59.133Z,72.06
2023-01-10T11:33:29.451Z,71.21
2023-01-10T11:36:01.912Z,70.45
2023-01-10T11:38:32.015Z,70.10
2023-01-10T11:41:03.132Z,70.95
2023-01-10T11:43:34.899Z,70.66
2023-01-10T11:46:05.212Z,69.11
2023-01-10T11:49:04.520Z,70.22
2023-01-10T11:51:34.965Z,70.31
2023-01-10T11:54:06.163Z,69.46
2023-01-10T11:56:35.984Z,69.57
2023-01-10T11:59:12.435Z,69.93
2023-01-10T12:01:46.288Z,71.17
2023-01-10T12:04:21.637Z,71.18
2023-01-10T12:06:58.795Z,70.93
2023-01-10T12:09:35.870Z,71.56
2023-01-10T12:12:09.701Z,71.18
2023-01-10T12:14:42.155Z,70.29
2023-01-10T12:17:22.949Z,70.53
2023-01-10T12:19:53.348Z,70.46
2023-01-10T12:22:28.229Z,68.33
2023-01-10T12:25:00.729Z,68.79
2023-01-10T12:27:31.985Z,67.80
2023-01-10T12:30:09.329Z,67.70
2023-01-10T12:33:18.280Z,68.61
2023-01-10T12:36:34.741Z,67.60
2023-01-10T12:39:19.121Z,65.50
2023-01-10T12:42:46.954Z,64.66
2023-01-10T12:45:38.551Z,66.42
2023-01-10T12:48:25.794Z,64.77
2023-01-10T12:51:07.336Z,65.02
2023-01-10T12:53:44.614Z,65.43
2023-01-10T12:56:19.098Z,64.96
2023-01-10T12:59:07.401Z,64.31
2023-01-10T13:01:48.284Z,63.61
2023-01-10T13:04:23.694Z,62.83
2023-01-10T13:07:18.770Z,62.28
2023-01-10T13:09:50.359Z,62.78
2023-01-10T13:12:24.882Z,63.26
2023-01-10T13:15:00.782Z,61.75
2023-01-10T13:17:40.006Z,61.99
2023-01-10T13:20:42.128Z,61.21
2023-01-10T13:23:31.478Z,61.39
2023-01-10T13:26:10.543Z,61.60
2023-01-10T13:28:55.292Z,60.76
2023-01-10T13:31:27.817Z,60.57
2023-01-10T13:33:59.102Z,59.93
2023-01-10T13:36:49.109Z,59.78
2023-01-10T13:39:29.583Z,59.78
2023-01-10T13:42:42.973Z,58.76
2023-01-10T13:45:28.560Z,58.64
2023-01-10T13:48:31.243Z,57.99
2023-01-10T13:51:14.730Z,57.79
2023-01-10T13:53:59.725Z,56.91
2023-01-10T13:56:48.715Z,56.73
2023-01-10T14:00:16.395Z,56.21
2023-01-10T14:02:48.862Z,56.55
2023-01-10T14:05:23.639Z,56.03
2023-01-10T14:12:30.015Z,55.68
2023-01-10T14:15:04.559Z,55.73
2023-01-10T14:17:34.628Z,56.23
2023-01-10T14:20:17.103Z,57.73
2023-01-10T14:23:00.452Z,56.48
2023-01-10T14:25:29.904Z,57.65
2023-01-10T14:28:05.316Z,58.57
2023-01-10T14:30:37.566Z,58.44
2023-01-10T14:33:16.946Z,58.44
2023-01-10T14:36:39.223Z,58.60
2023-01-10T14:39:18.359Z,58.38
2023-01-10T14:42:27.452Z,58.32
2023-01-10T14:45:45.214Z,59.13
2023-01-10T14:48:52.101Z,59.21
2023-01-10T14:51:29.549Z,59.81
2023-01-10T14:54:05.058Z,59.22
2023-01-10T14:56:42.193Z,59.46
2023-01-10T15:00:19.297Z,60.02
2023-01-10T15:03:08.690Z,59.77
2023-01-10T15:05:46.102Z,60.47
2023-01-10T15:08:30.785Z,60.32
2023-01-10T15:14:33.784Z,61.18
2023-01-10T15:17:09.039Z,61.59
2023-01-10T15:19:46.349Z,61.97
2023-01-10T15:22:32.171Z,62.77
2023-01-10T15:25:04.589Z,63.22
2023-01-10T15:27:33.812Z,62.96
2023-01-10T15:30:08.524Z,64.19
2023-01-10T15:32:51.573Z,63.67
2023-01-10T15:35:27.417Z,63.87
2023-01-10T15:38:08.400Z,64.04
2023-01-10T15:40:57.213Z,63.91
2023-01-10T15:43:31.608Z,63.82
2023-01-10T15:46:27.636Z,63.51
2023-01-10T15:49:01.470Z,63.95
2023-01-10T15:51:34.043Z,63.01
2023-01-10T15:54:05.647Z,63.84
2023-01-10T15:56:39.471Z,63.70
2023-01-10T15:59:23.766Z,64.05
2023-01-10T16:02:33.581Z,64.16
2023-01-10T16:05:12.612Z,64.01
2023-01-10T16:07:47.581Z,64.36
2023-01-10T16:10:21.988Z,63.96
2023-01-10T16:13:23.455Z,64.79
2023-01-10T16:15:56.501Z,64.69
2023-01-10T16:18:25.734Z,64.06
2023-01-10T16:20:58.277Z,63.69
2023-01-10T16:23:34.424Z,64.09
2023-01-10T16:26:06.431Z,63.75
2023-01-10T16:28:45.354Z,64.14
2023-01-10T16:34:52.711Z,64.14
2023-01-10T16:37:23.088Z,64.48
2023-01-10T16:39:51.181Z,64.15
2023-01-10T16:42:36.646Z,64.00
2023-01-10T16:45:13.009Z,64.96
2023-01-10T16:47:44.310Z,65.19
2023-01-10T16:50:12.906Z,65.13
2023-01-10T16:52:42.364Z,65.38
2023-01-10T16:55:18.351Z,64.83
2023-01-10T16:57:49.193Z,65.90
2023-01-10T17:00:25.782Z,65.58
2023-01-10T17:02:54.585Z,65.56
2023-01-10T17:05:26.724Z,65.91
2023-01-10T17:08:00.139Z,65.51
2023-01-10T17:10:30.670Z,65.39
2023-01-10T17:12:58.556Z,64.88
2023-01-10T17:15:36.733Z,65.14
2023-01-10T17:18:12.019Z,64.40
2023-01-10T17:20:39.863Z,65.64
2023-01-10T17:23:12.899Z,65.27
2023-01-10T17:25:40.780Z,65.13
2023-01-10T17:28:10.368Z,65.79
2023-01-10T17:30:40.025Z,65.23
2023-01-10T17:33:14.762Z,65.56
2023-01-10T17:35:46.853Z,65.52
2023-01-10T17:38:18.355Z,65.22
2023-01-10T17:40:56.497Z,65.29
2023-01-10T17:43:33.851Z,65.06
2023-01-10T17:46:06.757Z,64.89
2023-01-10T17:48:36.949Z,65.12
2023-01-10T17:51:10.056Z,65.23
2023-01-10T17:53:39.342Z,65.15
2023-01-10T17:56:08.447Z,64.45
2023-01-10T17:58:36.396Z,64.61
2023-01-10T18:01:27.459Z,65.05
2023-01-10T18:03:57.792Z,64.30
2023-01-10T18:06:26.062Z,63.82
2023-01-10T18:08:57.815Z,63.48
2023-01-10T18:11:26.340Z,63.50
2023-01-10T18:13:57.799Z,64.00
2023-01-10T18:16:31.460Z,63.79
2023-01-10T18:19:05.205Z,63.61
2023-01-10T18:21:33.290Z,63.96
2023-01-10T18:24:02.860Z,63.85
2023-01-10T18:26:31.795Z,63.46
2023-01-10T18:33:21.076Z,63.84
2023-01-10T18:35:49.278Z,63.73
2023-01-10T18:38:19.814Z,63.33
2023-01-10T18:40:53.489Z,63.72
2023-01-10T18:43:24.847Z,63.54
2023-01-10T18:46:03.589Z,63.46
2023-01-10T18:48:53.667Z,63.54
2023-01-10T18:51:22.900Z,63.80
2023-01-10T18:53:52.979Z,63.82
2023-01-10T18:56:25.435Z,64.42
2023-01-10T18:58:53.573Z,64.15
2023-01-10T19:01:24.840Z,64.02
2023-01-10T19:03:53.085Z,63.82
2023-01-10T19:06:22.921Z,63.85
2023-01-10T19:08:55.481Z,64.08
2023-01-10T19:11:30.033Z,64.15
2023-01-10T19:14:19.492Z,64.82
2023-01-10T19:16:50.159Z,65.11
2023-01-10T19:19:18.224Z,64.70
2023-01-10T19:21:46.664Z,63.69
2023-01-10T19:24:27.502Z,63.84
2023-01-10T19:27:22.402Z,64.31
2023-01-10T19:29:53.568Z,64.24
2023-01-10T19:32:28.060Z,63.96
2023-01-10T19:34:56.159Z,64.51
2023-01-10T19:37:42.186Z,64.22
2023-01-10T19:40:37.699Z,64.51
2023-01-10T19:43:48.315Z,63.95
2023-01-10T19:46:45.364Z,64.20
2023-01-10T19:49:37.429Z,64.25
2023-01-10T19:52:06.567Z,64.21
2023-01-10T19:54:44.556Z,63.62
2023-01-10T19:57:24.427Z,64.25
2023-01-10T19:59:59.761Z,63.63
2023-01-10T20:02:30.042Z,63.85
2023-01-10T20:05:10.522Z,64.02
2023-01-10T20:07:44.313Z,64.14
2023-01-10T20:10:42.207Z,64.08
2023-01-10T20:13:12.715Z,64.79
2023-01-10T20:15:44.397Z,64.22
2023-01-10T20:18:13.754Z,64.87
2023-01-10T20:20:42.031Z,64.19
2023-01-10T20:23:12.899Z,64.15
2023-01-10T20:25:40.996Z,64.59
2023-01-10T20:28:09.532Z,65.31
2023-01-10T20:30:42.766Z,65.74
2023-01-10T20:33:11.539Z,65.05
2023-01-10T20:35:40.877Z,65.22
2023-01-10T20:38:12.364Z,65.10
2023-01-10T20:40:42.637Z,65.32
2023-01-10T20:43:19.034Z,65.33
2023-01-10T20:45:49.205Z,66.16
2023-01-10T20:48:17.803Z,65.71
2023-01-10T20:50:46.842Z,66.49
2023-01-10T20:53:16.908Z,66.11
2023-01-10T20:55:53.483Z,64.96
2023-01-10T20:58:27.015Z,64.95
2023-01-10T21:00:58.520Z,64.83
2023-01-10T21:03:26.958Z,64.82
2023-01-10T21:05:55.858Z,64.07
2023-01-10T21:08:23.970Z,64.14
2023-01-10T21:13:47.132Z,63.43
2023-01-10T21:16:19.683Z,62.96
2023-01-10T21:18:48.120Z,62.79
2023-01-10T21:21:18.278Z,62.58
2023-01-10T21:23:46.553Z,62.18
2023-01-10T21:26:16.070Z,63.37
2023-01-10T21:28:46.641Z,64.06
2023-01-10T21:31:20.354Z,66.23
2023-01-10T21:33:49.228Z,67.05
2023-01-10T21:36:20.091Z,68.35
2023-01-10T21:38:49.129Z,67.79
2023-01-10T21:41:40.159Z,68.19
2023-01-10T21:44:09.373Z,67.80
2023-01-10T21:46:38.946Z,67.20
2023-01-10T21:49:10.451Z,67.58
2023-01-10T21:51:47.500Z,67.03
2023-01-10T21:54:15.477Z,66.61
2023-01-10T21:56:45.516Z,67.01
2023-01-10T21:59:13.464Z,67.49
2023-01-10T22:01:42.687Z,67.32
2023-01-10T22:04:10.656Z,66.77
2023-01-10T22:06:38.677Z,66.43
2023-01-10T22:09:08.951Z,66.43
2023-01-10T22:11:37.315Z,66.24
2023-01-10T22:14:05.481Z,66.73
2023-01-10T22:16:33.508Z,66.58
2023-01-10T22:19:03.049Z,67.11
2023-01-10T22:21:30.928Z,67.45
2023-01-10T22:24:01.067Z,67.88
2023-01-10T22:26:28.903Z,67.95
2023-01-10T22:28:56.785Z,68.20
2023-01-10T22:31:24.786Z,67.94
2023-01-10T22:33:52.764Z,68.02
2023-01-10T22:36:23.537Z,67.53
2023-01-10T22:38:59.568Z,67.48
2023-01-10T22:41:28.806Z,67.83
2023-01-10T22:43:57.732Z,67.81
2023-01-10T22:46:26.046Z,67.70
2023-01-10T22:48:54.804Z,68.09
2023-01-10T22:51:35.417Z,67.92
2023-01-10T22:54:05.964Z,68.28
2023-01-10T22:56:33.813Z,68.45
2023-01-10T22:59:01.786Z,68.66
2023-01-10T23:01:29.776Z,69.33
2023-01-10T23:03:57.796Z,69.15
2023-01-10T23:06:27.025Z,69.56
2023-01-10T23:08:57.960Z,69.67
2023-01-10T23:11:25.888Z,69.25
2023-01-10T23:13:53.832Z,69.40
2023-01-10T23:16:28.741Z,69.16
2023-01-10T23:18:57.483Z,69.77
2023-01-10T23:21:29.990Z,69.18
2023-01-10T23:23:58.464Z,69.08
2023-01-10T23:26:34.420Z,69.19
2023-01-10T23:29:02.358Z,68.64
2023-01-10T23:31:32.090Z,68.77
2023-01-10T23:34:00.047Z,67.98
2023-01-10T23:36:29.468Z,67.89
2023-01-10T23:38:59.906Z,68.62
2023-01-10T23:41:42.711Z,69.54
2023-01-10T23:44:10.654Z,68.84
2023-01-10T23:46:49.542Z,68.38
2023-01-10T23:49:17.539Z,67.83
2023-01-10T23:51:46.688Z,67.57
2023-01-10T23:54:14.965Z,68.00
2023-01-10T23:56:51.768Z,67.48
2023-01-10T23:59:19.699Z,67.72
